sensor_id;sensor_type;location;lat;lon;timestamp;pressure;altitude;pressure_sealevel;temperature;humidity
16580;BME280;8402;51.466;6.806;2023-10-08T00:01:17;101925.69;;;20.02;78.84
16580;BME280;8402;51.466;6.806;2023-10-08T00:03:49;101942.66;;;20.04;78.74
16580;BME280;8402;51.466;6.806;2023-10-08T00:06:25;101946.94;;;20.02;78.84
16580;BME280;8402;51.466;6.806;2023-10-08T00:08:56;101951.16;;;19.99;78.67
16580;BME280;8402;51.466;6.806;2023-10-08T00:11:29;101959.34;;;19.96;78.26
16580;BME280;8402;51.466;6.806;2023-10-08T00:14:00;101947.75;;;19.90;78.98
16580;BME280;8402;51.466;6.806;2023-10-08T00:16:32;101927.91;;;19.85;78.91
16580;BME280;8402;51.466;6.806;2023-10-08T00:19:06;101954.22;;;19.82;79.09
16580;BME280;8402;51.466;6.806;2023-10-08T00:21:42;101954.56;;;19.81;78.92
16580;BME280;8402;51.466;6.806;2023-10-08T00:24:12;101960.75;;;19.77;78.94
16580;BME280;8402;51.466;6.806;2023-10-08T00:26:44;101961.91;;;19.76;78.82
16580;BME280;8402;51.466;6.806;2023-10-08T00:29:14;101955.59;;;19.76;78.87
16580;BME280;8402;51.466;6.806;2023-10-08T00:31:49;101971.66;;;19.74;78.76
16580;BME280;8402;51.466;6.806;2023-10-08T00:34:19;101962.47;;;19.70;79.09
16580;BME280;8402;51.466;6.806;2023-10-08T00:36:49;101967.53;;;19.68;79.10
16580;BME280;8402;51.466;6.806;2023-10-08T00:39:19;101968.69;;;19.67;79.07
16580;BME280;8402;51.466;6.806;2023-10-08T00:41:56;101978.09;;;19.66;79.20
16580;BME280;8402;51.466;6.806;2023-10-08T00:44:31;101985.22;;;19.67;79.31
16580;BME280;8402;51.466;6.806;2023-10-08T00:47:05;101976.50;;;19.65;79.14
16580;BME280;8402;51.466;6.806;2023-10-08T00:49:37;101974.06;;;19.63;78.80
16580;BME280;8402;51.466;6.806;2023-10-08T00:52:26;101969.94;;;19.57;79.03
16580;BME280;8402;51.466;6.806;2023-10-08T00:54:58;101974.63;;;19.57;79.33
16580;BME280;8402;51.466;6.806;2023-10-08T00:57:39;101980.13;;;19.57;78.88
16580;BME280;8402;51.466;6.806;2023-10-08T01:00:12;101979.22;;;19.52;79.33
16580;BME280;8402;51.466;6.806;2023-10-08T01:02:49;101976.03;;;19.50;79.19
16580;BME280;8402;51.466;6.806;2023-10-08T01:05:27;101979.91;;;19.49;79.05
16580;BME280;8402;51.466;6.806;2023-10-08T01:08:15;101972.44;;;19.50;78.88
16580;BME280;8402;51.466;6.806;2023-10-08T01:10:50;101974.75;;;19.48;79.29
16580;BME280;8402;51.466;6.806;2023-10-08T01:13:33;101977.06;;;19.46;79.06
16580;BME280;8402;51.466;6.806;2023-10-08T01:16:11;101979.00;;;19.45;79.87
16580;BME280;8402;51.466;6.806;2023-10-08T01:18:42;101989.31;;;19.48;79.15
16580;BME280;8402;51.466;6.806;2023-10-08T01:21:17;101990.25;;;19.52;79.26
16580;BME280;8402;51.466;6.806;2023-10-08T01:24:04;102003.66;;;19.54;78.68
16580;BME280;8402;51.466;6.806;2023-10-08T01:26:35;102001.34;;;19.56;78.99
16580;BME280;8402;51.466;6.806;2023-10-08T01:29:09;102001.25;;;19.52;79.09
16580;BME280;8402;51.466;6.806;2023-10-08T01:31:46;101993.34;;;19.51;79.29
16580;BME280;8402;51.466;6.806;2023-10-08T01:34:20;101992.53;;;19.50;79.17
16580;BME280;8402;51.466;6.806;2023-10-08T01:36:57;101995.75;;;19.52;79.12
16580;BME280;8402;51.466;6.806;2023-10-08T01:39:35;101985.88;;;19.51;79.09
16580;BME280;8402;51.466;6.806;2023-10-08T01:42:06;101990.59;;;19.51;79.22
16580;BME280;8402;51.466;6.806;2023-10-08T01:44:43;101987.50;;;19.52;79.22
16580;BME280;8402;51.466;6.806;2023-10-08T01:47:16;101987.94;;;19.55;79.24
16580;BME280;8402;51.466;6.806;2023-10-08T01:49:46;101987.13;;;19.54;79.05
16580;BME280;8402;51.466;6.806;2023-10-08T01:52:16;101986.34;;;19.53;79.12
16580;BME280;8402;51.466;6.806;2023-10-08T01:54:51;101985.88;;;19.51;78.97
16580;BME280;8402;51.466;6.806;2023-10-08T01:57:23;101975.09;;;19.46;78.86
16580;BME280;8402;51.466;6.806;2023-10-08T01:59:52;101982.78;;;19.41;79.32
16580;BME280;8402;51.466;6.806;2023-10-08T02:02:22;101973.28;;;19.38;79.32
16580;BME280;8402;51.466;6.806;2023-10-08T02:04:52;101984.50;;;19.33;78.93
16580;BME280;8402;51.466;6.806;2023-10-08T02:07:22;101981.63;;;19.30;79.59
16580;BME280;8402;51.466;6.806;2023-10-08T02:09:55;101990.22;;;19.28;79.15
16580;BME280;8402;51.466;6.806;2023-10-08T02:12:26;101984.59;;;19.24;79.15
16580;BME280;8402;51.466;6.806;2023-10-08T02:14:56;101986.56;;;19.24;79.34
16580;BME280;8402;51.466;6.806;2023-10-08T02:17:25;101986.09;;;19.22;79.26
16580;BME280;8402;51.466;6.806;2023-10-08T02:19:56;101977.84;;;19.22;79.79
16580;BME280;8402;51.466;6.806;2023-10-08T02:22:26;101987.13;;;19.17;79.71
16580;BME280;8402;51.466;6.806;2023-10-08T02:24:58;101976.22;;;19.09;79.31
16580;BME280;8402;51.466;6.806;2023-10-08T02:27:30;101977.59;;;19.03;79.63
16580;BME280;8402;51.466;6.806;2023-10-08T02:30:00;101960.16;;;18.98;79.93
16580;BME280;8402;51.466;6.806;2023-10-08T02:32:33;101939.28;;;18.97;79.61
16580;BME280;8402;51.466;6.806;2023-10-08T02:35:04;101942.75;;;18.94;79.90
16580;BME280;8402;51.466;6.806;2023-10-08T02:37:36;101964.25;;;18.92;80.11
16580;BME280;8402;51.466;6.806;2023-10-08T02:40:10;101996.34;;;18.88;79.84
16580;BME280;8402;51.466;6.806;2023-10-08T02:42:48;101973.22;;;18.89;80.06
16580;BME280;8402;51.466;6.806;2023-10-08T02:45:18;101976.31;;;18.88;80.12
16580;BME280;8402;51.466;6.806;2023-10-08T02:47:48;101953.38;;;18.84;79.73
16580;BME280;8402;51.466;6.806;2023-10-08T02:50:22;101955.53;;;18.78;80.26
16580;BME280;8402;51.466;6.806;2023-10-08T02:52:54;101967.66;;;18.77;80.13
16580;BME280;8402;51.466;6.806;2023-10-08T02:55:32;101990.81;;;18.76;80.07
16580;BME280;8402;51.466;6.806;2023-10-08T02:58:08;102009.59;;;18.74;80.02
16580;BME280;8402;51.466;6.806;2023-10-08T03:00:42;102023.69;;;18.73;79.85
16580;BME280;8402;51.466;6.806;2023-10-08T03:03:13;101992.16;;;18.70;80.01
16580;BME280;8402;51.466;6.806;2023-10-08T03:05:47;102018.06;;;18.69;79.94
16580;BME280;8402;51.466;6.806;2023-10-08T03:08:18;102022.75;;;18.68;80.38
16580;BME280;8402;51.466;6.806;2023-10-08T03:10:53;102009.97;;;18.64;79.60
16580;BME280;8402;51.466;6.806;2023-10-08T03:13:29;102004.47;;;18.64;80.09
16580;BME280;8402;51.466;6.806;2023-10-08T03:15:59;102028.09;;;18.65;80.38
16580;BME280;8402;51.466;6.806;2023-10-08T03:18:36;102054.25;;;18.71;80.38
16580;BME280;8402;51.466;6.806;2023-10-08T03:21:10;102051.03;;;18.69;79.55
16580;BME280;8402;51.466;6.806;2023-10-08T03:24:09;102034.72;;;18.64;79.74
16580;BME280;8402;51.466;6.806;2023-10-08T03:26:59;102042.97;;;18.64;79.20
16580;BME280;8402;51.466;6.806;2023-10-08T03:29:39;102043.13;;;18.67;79.88
16580;BME280;8402;51.466;6.806;2023-10-08T03:32:13;102026.31;;;18.69;79.53
16580;BME280;8402;51.466;6.806;2023-10-08T03:34:45;102026.66;;;18.67;79.27
16580;BME280;8402;51.466;6.806;2023-10-08T03:37:16;102006.59;;;18.67;79.59
16580;BME280;8402;51.466;6.806;2023-10-08T03:39:56;102020.81;;;18.69;79.53
16580;BME280;8402;51.466;6.806;2023-10-08T03:42:52;101979.56;;;18.69;78.96
16580;BME280;8402;51.466;6.806;2023-10-08T03:45:22;101978.75;;;18.68;78.93
16580;BME280;8402;51.466;6.806;2023-10-08T03:48:05;102005.78;;;18.66;79.13
16580;BME280;8402;51.466;6.806;2023-10-08T03:50:42;101988.31;;;18.62;79.08
16580;BME280;8402;51.466;6.806;2023-10-08T03:53:12;101998.88;;;18.60;79.16
16580;BME280;8402;51.466;6.806;2023-10-08T03:55:43;101978.56;;;18.53;79.02
16580;BME280;8402;51.466;6.806;2023-10-08T03:58:20;102036.75;;;18.55;79.41
16580;BME280;8402;51.466;6.806;2023-10-08T04:00:56;102021.41;;;18.54;79.51
16580;BME280;8402;51.466;6.806;2023-10-08T04:03:35;102027.59;;;18.51;79.13
16580;BME280;8402;51.466;6.806;2023-10-08T04:06:26;102004.66;;;18.47;79.18
16580;BME280;8402;51.466;6.806;2023-10-08T04:09:06;102014.84;;;18.46;79.45
16580;BME280;8402;51.466;6.806;2023-10-08T04:11:44;102031.97;;;18.43;79.43
16580;BME280;8402;51.466;6.806;2023-10-08T04:14:28;102030.25;;;18.38;79.04
16580;BME280;8402;51.466;6.806;2023-10-08T04:16:58;102019.28;;;18.38;79.12
16580;BME280;8402;51.466;6.806;2023-10-08T04:19:29;102038.84;;;18.37;79.04
16580;BME280;8402;51.466;6.806;2023-10-08T04:21:59;102039.97;;;18.36;79.20
16580;BME280;8402;51.466;6.806;2023-10-08T04:24:30;102042.25;;;18.34;79.12
16580;BME280;8402;51.466;6.806;2023-10-08T04:27:02;102033.66;;;18.35;79.49
16580;BME280;8402;51.466;6.806;2023-10-08T04:29:39;102030.00;;;18.31;78.84
16580;BME280;8402;51.466;6.806;2023-10-08T04:32:09;102018.84;;;18.28;79.05
16580;BME280;8402;51.466;6.806;2023-10-08T04:34:49;102030.88;;;18.23;79.04
16580;BME280;8402;51.466;6.806;2023-10-08T04:37:20;102031.06;;;18.18;79.40
16580;BME280;8402;51.466;6.806;2023-10-08T04:39:59;102041.59;;;18.16;79.76
16580;BME280;8402;51.466;6.806;2023-10-08T04:42:29;102045.94;;;18.17;79.70
16580;BME280;8402;51.466;6.806;2023-10-08T04:45:02;102051.56;;;18.21;79.28
16580;BME280;8402;51.466;6.806;2023-10-08T04:47:32;102024.09;;;18.21;79.16
16580;BME280;8402;51.466;6.806;2023-10-08T04:50:03;102032.00;;;18.22;79.62
16580;BME280;8402;51.466;6.806;2023-10-08T04:52:41;102043.00;;;18.22;79.43
16580;BME280;8402;51.466;6.806;2023-10-08T04:55:14;102049.28;;;18.23;79.25
16580;BME280;8402;51.466;6.806;2023-10-08T04:57:47;102061.09;;;18.23;79.42
16580;BME280;8402;51.466;6.806;2023-10-08T05:00:22;102070.47;;;18.22;79.34
16580;BME280;8402;51.466;6.806;2023-10-08T05:03:08;102083.72;;;18.20;79.67
16580;BME280;8402;51.466;6.806;2023-10-08T05:05:41;102080.84;;;18.17;79.83
16580;BME280;8402;51.466;6.806;2023-10-08T05:08:24;102094.44;;;18.13;80.01
16580;BME280;8402;51.466;6.806;2023-10-08T05:11:14;102088.63;;;18.14;80.18
16580;BME280;8402;51.466;6.806;2023-10-08T05:13:51;102100.88;;;18.17;79.93
16580;BME280;8402;51.466;6.806;2023-10-08T05:16:35;102087.59;;;18.19;79.83
16580;BME280;8402;51.466;6.806;2023-10-08T05:19:10;102096.31;;;18.21;79.84
16580;BME280;8402;51.466;6.806;2023-10-08T05:22:15;102100.19;;;18.20;79.91
16580;BME280;8402;51.466;6.806;2023-10-08T05:25:08;102104.09;;;18.19;80.05
16580;BME280;8402;51.466;6.806;2023-10-08T05:27:53;102100.19;;;18.20;79.89
16580;BME280;8402;51.466;6.806;2023-10-08T05:30:26;102086.97;;;18.22;79.93
16580;BME280;8402;51.466;6.806;2023-10-08T05:33:08;102095.66;;;18.24;80.03
16580;BME280;8402;51.466;6.806;2023-10-08T05:35:52;102082.72;;;18.25;80.21
16580;BME280;8402;51.466;6.806;2023-10-08T05:38:30;102074.03;;;18.23;80.39
16580;BME280;8402;51.466;6.806;2023-10-08T05:41:15;102056.25;;;18.20;80.30
16580;BME280;8402;51.466;6.806;2023-10-08T05:44:06;102070.47;;;18.22;80.56
16580;BME280;8402;51.466;6.806;2023-10-08T05:46:51;102069.34;;;18.23;80.61
16580;BME280;8402;51.466;6.806;2023-10-08T05:49:36;102068.66;;;18.26;80.39
16580;BME280;8402;51.466;6.806;2023-10-08T05:52:09;102071.41;;;18.26;80.22
16580;BME280;8402;51.466;6.806;2023-10-08T05:55:00;102072.19;;;18.27;80.37
16580;BME280;8402;51.466;6.806;2023-10-08T05:57:52;102083.06;;;18.23;80.26
16580;BME280;8402;51.466;6.806;2023-10-08T06:00:31;102086.47;;;18.20;80.22
16580;BME280;8402;51.466;6.806;2023-10-08T06:03:32;102087.59;;;18.19;80.33
16580;BME280;8402;51.466;6.806;2023-10-08T06:06:08;102080.97;;;18.20;80.15
16580;BME280;8402;51.466;6.806;2023-10-08T06:08:52;102080.50;;;18.18;80.23
16580;BME280;8402;51.466;6.806;2023-10-08T06:11:48;102071.66;;;18.12;80.51
16580;BME280;8402;51.466;6.806;2023-10-08T06:14:39;102108.97;;;18.13;80.42
16580;BME280;8402;51.466;6.806;2023-10-08T06:17:35;102090.25;;;18.07;80.49
16580;BME280;8402;51.466;6.806;2023-10-08T06:20:25;102097.22;;;18.04;80.80
16580;BME280;8402;51.466;6.806;2023-10-08T06:22:56;102120.69;;;18.02;81.34
16580;BME280;8402;51.466;6.806;2023-10-08T06:25:34;102134.88;;;18.04;81.12
16580;BME280;8402;51.466;6.806;2023-10-08T06:28:13;102121.59;;;18.06;81.24
16580;BME280;8402;51.466;6.806;2023-10-08T06:30:49;102120.81;;;18.05;81.44
16580;BME280;8402;51.466;6.806;2023-10-08T06:33:21;102120.00;;;18.05;81.34
16580;BME280;8402;51.466;6.806;2023-10-08T06:35:56;102118.88;;;18.06;81.59
16580;BME280;8402;51.466;6.806;2023-10-08T06:38:41;102121.59;;;18.06;81.66
16580;BME280;8402;51.466;6.806;2023-10-08T06:41:12;102114.97;;;18.07;81.60
16580;BME280;8402;51.466;6.806;2023-10-08T06:44:04;102115.47;;;18.09;81.51
16580;BME280;8402;51.466;6.806;2023-10-08T06:46:44;102110.44;;;18.11;81.43
16580;BME280;8402;51.466;6.806;2023-10-08T06:49:15;102146.16;;;18.11;81.56
16580;BME280;8402;51.466;6.806;2023-10-08T06:51:45;102155.66;;;18.13;81.65
16580;BME280;8402;51.466;6.806;2023-10-08T06:54:17;102163.59;;;18.15;81.34
16580;BME280;8402;51.466;6.806;2023-10-08T06:56:49;102164.88;;;18.18;81.72
16580;BME280;8402;51.466;6.806;2023-10-08T06:59:22;102168.88;;;18.20;81.27
16580;BME280;8402;51.466;6.806;2023-10-08T07:01:55;102164.53;;;18.19;81.46
16580;BME280;8402;51.466;6.806;2023-10-08T07:04:25;102167.28;;;18.19;81.55
16580;BME280;8402;51.466;6.806;2023-10-08T07:06:56;102157.91;;;18.20;81.79
16580;BME280;8402;51.466;6.806;2023-10-08T07:09:27;102156.75;;;18.21;81.87
16580;BME280;8402;51.466;6.806;2023-10-08T07:12:03;102172.13;;;18.22;81.81
16580;BME280;8402;51.466;6.806;2023-10-08T07:14:40;102188.59;;;18.22;81.93
16580;BME280;8402;51.466;6.806;2023-10-08T07:17:16;102199.44;;;18.19;82.13
16580;BME280;8402;51.466;6.806;2023-10-08T07:19:47;102198.63;;;18.18;82.50
16580;BME280;8402;51.466;6.806;2023-10-08T07:22:18;102213.84;;;18.15;82.78
16580;BME280;8402;51.466;6.806;2023-10-08T07:24:50;102203.66;;;18.16;82.88
16580;BME280;8402;51.466;6.806;2023-10-08T07:27:20;102209.97;;;18.17;82.92
16580;BME280;8402;51.466;6.806;2023-10-08T07:29:59;102192.19;;;18.14;83.54
16580;BME280;8402;51.466;6.806;2023-10-08T07:32:39;102184.91;;;18.18;83.34
16580;BME280;8402;51.466;6.806;2023-10-08T07:35:10;102175.19;;;18.21;83.46
16580;BME280;8402;51.466;6.806;2023-10-08T07:37:51;102175.63;;;18.31;83.46
16580;BME280;8402;51.466;6.806;2023-10-08T07:40:21;102176.38;;;18.40;82.92
16580;BME280;8402;51.466;6.806;2023-10-08T07:42:55;102184.56;;;18.49;82.93
16580;BME280;8402;51.466;6.806;2023-10-08T07:45:35;102189.06;;;18.54;82.98
16580;BME280;8402;51.466;6.806;2023-10-08T07:48:08;102189.88;;;18.54;82.68
16580;BME280;8402;51.466;6.806;2023-10-08T07:50:41;102195.53;;;18.58;82.87
16580;BME280;8402;51.466;6.806;2023-10-08T07:53:12;102201.94;;;18.62;82.54
16580;BME280;8402;51.466;6.806;2023-10-08T07:55:47;102193.84;;;18.65;82.55
16580;BME280;8402;51.466;6.806;2023-10-08T07:58:18;102190.31;;;18.65;82.50
16580;BME280;8402;51.466;6.806;2023-10-08T08:00:48;102192.41;;;18.68;82.25
16580;BME280;8402;51.466;6.806;2023-10-08T08:03:23;102199.78;;;18.76;82.32
16580;BME280;8402;51.466;6.806;2023-10-08T08:05:54;102187.91;;;18.84;82.10
16580;BME280;8402;51.466;6.806;2023-10-08T08:08:25;102205.38;;;18.88;81.72
16580;BME280;8402;51.466;6.806;2023-10-08T08:10:55;102204.03;;;18.94;81.92
16580;BME280;8402;51.466;6.806;2023-10-08T08:13:32;102207.44;;;18.91;81.91
16580;BME280;8402;51.466;6.806;2023-10-08T08:16:02;102216.19;;;18.93;81.77
16580;BME280;8402;51.466;6.806;2023-10-08T08:18:47;102222.66;;;18.89;82.00
16580;BME280;8402;51.466;6.806;2023-10-08T08:21:19;102220.25;;;18.87;82.12
16580;BME280;8402;51.466;6.806;2023-10-08T08:23:50;102224.63;;;18.88;82.29
16580;BME280;8402;51.466;6.806;2023-10-08T08:26:31;102230.47;;;18.87;82.24
16580;BME280;8402;51.466;6.806;2023-10-08T08:29:06;102228.25;;;18.80;82.55
16580;BME280;8402;51.466;6.806;2023-10-08T08:31:42;102235.19;;;18.78;82.84
16580;BME280;8402;51.466;6.806;2023-10-08T08:34:15;102235.19;;;18.78;82.88
16580;BME280;8402;51.466;6.806;2023-10-08T08:36:47;102225.00;;;18.78;82.66
16580;BME280;8402;51.466;6.806;2023-10-08T08:39:17;102218.84;;;18.81;83.40
16580;BME280;8402;51.466;6.806;2023-10-08T08:41:59;102222.53;;;18.85;83.39
16580;BME280;8402;51.466;6.806;2023-10-08T08:44:31;102222.34;;;18.90;83.33
16580;BME280;8402;51.466;6.806;2023-10-08T08:47:03;102228.78;;;18.94;83.42
16580;BME280;8402;51.466;6.806;2023-10-08T08:49:37;102222.59;;;18.97;83.17
16580;BME280;8402;51.466;6.806;2023-10-08T08:52:08;102217.09;;;18.97;83.35
16580;BME280;8402;51.466;6.806;2023-10-08T08:54:39;102231.00;;;19.01;83.03
16580;BME280;8402;51.466;6.806;2023-10-08T08:57:10;102248.31;;;19.02;83.36
16580;BME280;8402;51.466;6.806;2023-10-08T08:59:46;102253.38;;;18.91;83.99
16580;BME280;8402;51.466;6.806;2023-10-08T09:02:19;102248.22;;;18.89;84.09
16580;BME280;8402;51.466;6.806;2023-10-08T09:04:52;102248.22;;;18.89;83.96
16580;BME280;8402;51.466;6.806;2023-10-08T09:07:23;102269.78;;;18.87;84.43
16580;BME280;8402;51.466;6.806;2023-10-08T09:09:57;102271.56;;;18.83;84.50
16580;BME280;8402;51.466;6.806;2023-10-08T09:12:27;102283.25;;;18.80;84.20
16580;BME280;8402;51.466;6.806;2023-10-08T09:15:00;102286.44;;;18.82;84.17
16580;BME280;8402;51.466;6.806;2023-10-08T09:17:32;102288.53;;;18.85;84.42
16580;BME280;8402;51.466;6.806;2023-10-08T09:20:06;102292.06;;;18.86;83.46
16580;BME280;8402;51.466;6.806;2023-10-08T09:22:36;102289.66;;;18.84;83.69
16580;BME280;8402;51.466;6.806;2023-10-08T09:25:07;102290.16;;;18.86;83.58
16580;BME280;8402;51.466;6.806;2023-10-08T09:27:37;102300.81;;;18.88;83.54
16580;BME280;8402;51.466;6.806;2023-10-08T09:30:13;102295.66;;;18.86;83.21
16580;BME280;8402;51.466;6.806;2023-10-08T09:32:47;102291.44;;;18.89;83.28
16580;BME280;8402;51.466;6.806;2023-10-08T09:35:24;102307.41;;;18.95;83.14
16580;BME280;8402;51.466;6.806;2023-10-08T09:37:55;102318.69;;;19.03;83.37
16580;BME280;8402;51.466;6.806;2023-10-08T09:40:25;102313.31;;;19.06;82.95
16580;BME280;8402;51.466;6.806;2023-10-08T09:42:55;102318.69;;;19.03;82.98
16580;BME280;8402;51.466;6.806;2023-10-08T09:45:25;102318.81;;;19.06;82.71
16580;BME280;8402;51.466;6.806;2023-10-08T09:47:56;102317.38;;;19.09;83.03
16580;BME280;8402;51.466;6.806;2023-10-08T09:50:36;102294.56;;;19.08;81.83
16580;BME280;8402;51.466;6.806;2023-10-08T09:53:09;102301.31;;;19.11;82.67
16580;BME280;8402;51.466;6.806;2023-10-08T09:55:50;102302.94;;;19.12;82.37
16580;BME280;8402;51.466;6.806;2023-10-08T09:58:24;102301.13;;;19.16;82.13
16580;BME280;8402;51.466;6.806;2023-10-08T10:00:56;102288.97;;;19.17;82.51
16580;BME280;8402;51.466;6.806;2023-10-08T10:03:27;102302.31;;;19.27;82.51
16580;BME280;8402;51.466;6.806;2023-10-08T10:06:00;102299.38;;;19.32;82.03
16580;BME280;8402;51.466;6.806;2023-10-08T10:08:36;102295.50;;;19.33;82.19
16580;BME280;8402;51.466;6.806;2023-10-08T10:11:07;102297.09;;;19.34;81.93
16580;BME280;8402;51.466;6.806;2023-10-08T10:13:42;102301.94;;;19.37;81.10
16580;BME280;8402;51.466;6.806;2023-10-08T10:16:17;102300.78;;;19.38;81.10
16580;BME280;8402;51.466;6.806;2023-10-08T10:18:49;102294.00;;;19.36;81.31
16580;BME280;8402;51.466;6.806;2023-10-08T10:21:29;102296.03;;;19.27;80.94
16580;BME280;8402;51.466;6.806;2023-10-08T10:24:02;102294.06;;;19.27;81.76
16580;BME280;8402;51.466;6.806;2023-10-08T10:26:35;102304.63;;;19.25;81.58
16580;BME280;8402;51.466;6.806;2023-10-08T10:29:22;102302.88;;;19.20;80.73
16580;BME280;8402;51.466;6.806;2023-10-08T10:31:54;102304.63;;;19.25;81.31
16580;BME280;8402;51.466;6.806;2023-10-08T10:34:26;102301.41;;;19.23;81.47
16580;BME280;8402;51.466;6.806;2023-10-08T10:37:00;102316.97;;;19.19;81.25
16580;BME280;8402;51.466;6.806;2023-10-08T10:39:36;102316.69;;;19.12;80.88
16580;BME280;8402;51.466;6.806;2023-10-08T10:42:09;102322.53;;;19.10;80.70
16580;BME280;8402;51.466;6.806;2023-10-08T10:44:49;102328.09;;;19.02;80.90
16580;BME280;8402;51.466;6.806;2023-10-08T10:47:20;102326.47;;;19.01;81.56
16580;BME280;8402;51.466;6.806;2023-10-08T10:49:54;102332.91;;;19.05;81.34
16580;BME280;8402;51.466;6.806;2023-10-08T10:52:47;102331.97;;;19.01;80.87
16580;BME280;8402;51.466;6.806;2023-10-08T10:55:20;102332.63;;;18.97;81.01
16580;BME280;8402;51.466;6.806;2023-10-08T10:57:59;102330.34;;;19.00;81.58
16580;BME280;8402;51.466;6.806;2023-10-08T11:00:42;102333.03;;;18.87;80.67
16580;BME280;8402;51.466;6.806;2023-10-08T11:03:23;102333.66;;;18.84;81.07
16580;BME280;8402;51.466;6.806;2023-10-08T11:05:58;102327.03;;;18.85;81.34
16580;BME280;8402;51.466;6.806;2023-10-08T11:08:35;102330.75;;;18.89;80.91
16580;BME280;8402;51.466;6.806;2023-10-08T11:11:10;102325.06;;;18.94;81.80
16580;BME280;8402;51.466;6.806;2023-10-08T11:13:44;102324.84;;;19.00;81.19
16580;BME280;8402;51.466;6.806;2023-10-08T11:16:23;102317.94;;;18.93;80.25
16580;BME280;8402;51.466;6.806;2023-10-08T11:18:53;102316.81;;;18.94;80.88
16580;BME280;8402;51.466;6.806;2023-10-08T11:21:28;102318.41;;;18.95;80.89
16580;BME280;8402;51.466;6.806;2023-10-08T11:24:04;102315.19;;;18.93;79.91
16580;BME280;8402;51.466;6.806;2023-10-08T11:26:40;102312.09;;;18.95;79.97
16580;BME280;8402;51.466;6.806;2023-10-08T11:29:28;102295.06;;;19.02;80.60
16580;BME280;8402;51.466;6.806;2023-10-08T11:32:00;102302.03;;;18.99;79.71
16580;BME280;8402;51.466;6.806;2023-10-08T11:34:35;102303.72;;;19.12;79.70
16580;BME280;8402;51.466;6.806;2023-10-08T11:37:06;102312.53;;;19.27;79.66
16580;BME280;8402;51.466;6.806;2023-10-08T11:39:49;102301.25;;;19.40;79.40
16580;BME280;8402;51.466;6.806;2023-10-08T11:42:20;102304.63;;;19.46;78.47
16580;BME280;8402;51.466;6.806;2023-10-08T11:45:08;102293.06;;;19.52;78.56
16580;BME280;8402;51.466;6.806;2023-10-08T11:47:54;102293.72;;;19.49;76.97
16580;BME280;8402;51.466;6.806;2023-10-08T11:50:31;102292.38;;;19.56;77.97
16580;BME280;8402;51.466;6.806;2023-10-08T11:53:02;102286.81;;;19.64;77.91
16580;BME280;8402;51.466;6.806;2023-10-08T11:55:37;102289.03;;;19.71;77.50
16580;BME280;8402;51.466;6.806;2023-10-08T11:58:08;102275.06;;;19.76;77.75
16580;BME280;8402;51.466;6.806;2023-10-08T12:00:44;102272.34;;;19.88;77.74
16580;BME280;8402;51.466;6.806;2023-10-08T12:03:19;102277.16;;;19.91;77.19
16580;BME280;8402;51.466;6.806;2023-10-08T12:05:53;102274.59;;;19.74;75.98
16580;BME280;8402;51.466;6.806;2023-10-08T12:08:27;102284.75;;;19.61;76.20
16580;BME280;8402;51.466;6.806;2023-10-08T12:11:00;102279.84;;;19.67;76.47
16580;BME280;8402;51.466;6.806;2023-10-08T12:13:29;102269.56;;;19.76;76.99
16580;BME280;8402;51.466;6.806;2023-10-08T12:15:59;102271.41;;;19.84;76.33
16580;BME280;8402;51.466;6.806;2023-10-08T12:18:40;102279.13;;;19.91;76.06
16580;BME280;8402;51.466;6.806;2023-10-08T12:21:10;102278.00;;;20.04;76.69
16580;BME280;8402;51.466;6.806;2023-10-08T12:23:42;102267.56;;;20.10;76.17
16580;BME280;8402;51.466;6.806;2023-10-08T12:26:16;102261.63;;;20.08;75.12
16580;BME280;8402;51.466;6.806;2023-10-08T12:28:46;102271.47;;;20.09;76.30
16580;BME280;8402;51.466;6.806;2023-10-08T12:31:17;102277.00;;;20.09;76.21
16580;BME280;8402;51.466;6.806;2023-10-08T12:33:49;102258.91;;;19.87;74.54
16580;BME280;8402;51.466;6.806;2023-10-08T12:36:23;102263.50;;;19.83;75.67
16580;BME280;8402;51.466;6.806;2023-10-08T12:38:59;102252.59;;;19.86;76.25
16580;BME280;8402;51.466;6.806;2023-10-08T12:41:38;102273.00;;;19.85;75.52
16580;BME280;8402;51.466;6.806;2023-10-08T12:44:08;102261.19;;;19.85;76.24
16580;BME280;8402;51.466;6.806;2023-10-08T12:46:38;102245.47;;;19.85;75.92
16580;BME280;8402;51.466;6.806;2023-10-08T12:49:11;102248.81;;;19.91;76.53
16580;BME280;8402;51.466;6.806;2023-10-08T12:51:41;102228.06;;;19.93;76.23
16580;BME280;8402;51.466;6.806;2023-10-08T12:54:12;102239.53;;;19.95;76.10
16580;BME280;8402;51.466;6.806;2023-10-08T12:56:51;102234.03;;;19.95;75.63
16580;BME280;8402;51.466;6.806;2023-10-08T12:59:23;102250.31;;;19.88;75.20
16580;BME280;8402;51.466;6.806;2023-10-08T13:01:59;102250.66;;;19.87;75.23
16580;BME280;8402;51.466;6.806;2023-10-08T13:04:34;102231.47;;;19.90;75.46
16580;BME280;8402;51.466;6.806;2023-10-08T13:07:08;102225.31;;;19.93;75.96
16580;BME280;8402;51.466;6.806;2023-10-08T13:09:38;102230.56;;;19.86;75.07
16580;BME280;8402;51.466;6.806;2023-10-08T13:12:12;102228.94;;;19.85;75.31
16580;BME280;8402;51.466;6.806;2023-10-08T13:14:42;102227.81;;;19.86;75.79
16580;BME280;8402;51.466;6.806;2023-10-08T13:17:12;102223.22;;;19.90;75.92
16580;BME280;8402;51.466;6.806;2023-10-08T13:19:42;102229.31;;;19.96;75.76
16580;BME280;8402;51.466;6.806;2023-10-08T13:22:13;102193.47;;;19.84;74.84
16580;BME280;8402;51.466;6.806;2023-10-08T13:24:47;102188.88;;;19.75;75.14
16580;BME280;8402;51.466;6.806;2023-10-08T13:27:19;102208.59;;;19.77;76.07
16580;BME280;8402;51.466;6.806;2023-10-08T13:29:50;102191.88;;;19.83;76.43
16580;BME280;8402;51.466;6.806;2023-10-08T13:32:20;102188.22;;;19.91;76.76
16580;BME280;8402;51.466;6.806;2023-10-08T13:34:50;102177.06;;;19.99;76.72
16580;BME280;8402;51.466;6.806;2023-10-08T13:37:20;102180.78;;;20.03;76.59
16580;BME280;8402;51.466;6.806;2023-10-08T13:39:50;102177.78;;;20.09;77.14
16580;BME280;8402;51.466;6.806;2023-10-08T13:42:22;102171.34;;;20.04;76.68